Weather History for Novato, CA

Change the Weather History Date:

Monday, September 1, 2014

  Actual Average (KAPC) Record (KAPC)
Temperature  
Mean Temperature 72 °F 66 °F  
Max Temperature 95 °F 81 °F 99 °F (2002)
Min Temperature 50 °F 52 °F 45 °F (1999)
Degree Days  
Heating Degree Days 0    
Month to date heating degree days  
Since 1 July heating degree days  
Cooling Degree Days 8    
Month to date cooling degree days  
Year to date cooling degree days  
Growing Degree Days 22 (Base 50)    
Moisture  
Dew Point 52 °F    
Average Humidity 60    
Maximum Humidity 94    
Minimum Humidity 20    
Precipitation  
Precipitation 0.00 in - 0.01 in (2000)
Month to date precipitation  
Year to date precipitation  
Since 1 July precipitation  
Sea Level Pressure  
Sea Level Pressure 29.81 in    
Wind  
Wind Speed 3 mph (NNW)    
Max Wind Speed 14 mph    
Max Gust Speed 18 mph    
Visibility 10 miles    
Events      
T = Trace of Precipitation, MM = Missing Value Source: NWS Daily Summary

Daily Weather History Graph

Daily Weather History Graph

Search for Another Location

Airport:

Trip Planner

Search our weather history database for the weather conditions in past years. The results will help you decide how hot, cold, wet, or windy it might be!

Date:

Astronomy

Sep. 01, 2014 Rise Set
Actual Time 6:40 AM PDT 7:39 PM PDT
Civil Twilight 6:12 AM PDT 8:06 PM PDT
Nautical Twilight 5:40 AM PDT 8:38 PM PDT
Astronomical Twilight 5:07 AM PDT 9:11 PM PDT
Moon 1:24 PM PDT (9/1) 11:51 PM PDT (9/1)
Length of Visible Light 13h 53m
Length of Day
12h 59m
Waxing Crescent, 43% of the Moon is Illuminated
Sep 1
Waxing Crescent
Sep 2
First Quarter
Sep 8
Full
Sep 15
Last Quarter
Sep 23
New

Hourly Weather History & Observations

Time (PDT) Temp. Heat Index Dew Point Humidity Pressure Visibility Wind Dir Wind Speed Gust Speed Precip Events Conditions
12:15 AM 60.8 °F - 51.8 °F 72% 29.84 in 10.0 mi Calm Calm - N/A   Unknown
12:35 AM 59.0 °F - 50.0 °F 72% 29.84 in 10.0 mi Calm Calm - N/A   Unknown
12:55 AM 55.4 °F - 48.2 °F 77% 29.84 in 10.0 mi Calm Calm - N/A   Unknown
1:15 AM 57.2 °F - 50.0 °F 77% 29.84 in 10.0 mi Calm Calm - N/A   Unknown
1:35 AM 59.0 °F - 50.0 °F 72% 29.84 in 10.0 mi Calm Calm - N/A   Unknown
1:55 AM 53.6 °F - 46.4 °F 77% 29.84 in 10.0 mi Calm Calm - N/A   Unknown
2:15 AM 55.4 °F - 50.0 °F 82% 29.84 in 10.0 mi Calm Calm - N/A   Unknown
2:35 AM 55.4 °F - 50.0 °F 82% 29.83 in 10.0 mi Calm Calm - N/A   Unknown
2:55 AM 55.4 °F - 50.0 °F 82% 29.83 in 10.0 mi Calm Calm - N/A   Unknown
3:15 AM 57.2 °F - 50.0 °F 77% 29.83 in 10.0 mi Calm Calm - N/A   Unknown
3:35 AM 55.4 °F - 50.0 °F 82% 29.83 in 10.0 mi Calm Calm - N/A   Unknown
3:55 AM 55.4 °F - 50.0 °F 82% 29.83 in 10.0 mi South 3.5 mph - N/A   Unknown
4:15 AM 57.2 °F - 50.0 °F 77% 29.83 in 10.0 mi Calm Calm - N/A   Unknown
4:35 AM 50.0 °F - 48.2 °F 94% 29.83 in 10.0 mi North 3.5 mph - N/A   Unknown
4:55 AM 51.8 °F - 48.2 °F 88% 29.83 in 9.0 mi North 3.5 mph - N/A   Unknown
5:15 AM 51.8 °F - 48.2 °F 88% 29.83 in 10.0 mi Calm Calm - N/A   Unknown
5:35 AM 53.6 °F - 48.2 °F 82% 29.83 in 10.0 mi Calm Calm - N/A   Unknown
6:15 AM 53.6 °F - 50.0 °F 88% 29.84 in 10.0 mi SSW 3.5 mph - N/A   Unknown
6:35 AM 53.6 °F - 50.0 °F 88% 29.84 in 10.0 mi South 5.8 mph - N/A   Unknown
6:55 AM 55.4 °F - 50.0 °F 82% 29.85 in 10.0 mi South 3.5 mph - N/A   Unknown
7:15 AM 53.6 °F - 50.0 °F 88% 29.85 in 10.0 mi Calm Calm - N/A   Unknown
7:35 AM 55.4 °F - 50.0 °F 82% 29.86 in 10.0 mi Calm Calm - N/A   Unknown
7:55 AM 57.2 °F - 50.0 °F 77% 29.86 in 8.0 mi Calm Calm - N/A   Unknown
8:15 AM 60.8 °F - 51.8 °F 72% 29.86 in 10.0 mi Calm Calm - N/A   Unknown
8:35 AM 64.4 °F - 53.6 °F 68% 29.86 in 10.0 mi Calm Calm - N/A   Unknown
9:15 AM 66.2 °F - 55.4 °F 68% 29.86 in 10.0 mi Calm Calm - N/A   Clear
9:35 AM 68.0 °F - 55.4 °F 64% 29.86 in 10.0 mi Calm Calm - N/A   Clear
10:35 AM 73.4 °F - 55.4 °F 53% 29.86 in 10.0 mi Calm Calm - N/A   Clear
10:55 AM 75.2 °F - 55.4 °F 50% 29.85 in 10.0 mi NE 3.5 mph - N/A   Clear
11:15 AM 77.0 °F - 55.4 °F 47% 29.85 in 10.0 mi ENE 3.5 mph - N/A   Clear
11:35 AM 80.6 °F 80.5 °F 55.4 °F 42% 29.85 in 10.0 mi NNE 4.6 mph - N/A   Clear
12:15 PM 82.4 °F 81.7 °F 55.4 °F 39% 29.83 in 10.0 mi NE 5.8 mph - N/A   Clear
12:35 PM 86.0 °F 84.2 °F 53.6 °F 33% 29.83 in 10.0 mi NE 6.9 mph - N/A   Clear
1:15 PM 89.6 °F 87.3 °F 53.6 °F 29% 29.81 in - ENE 6.9 mph - N/A   Clear
1:35 PM 93.2 °F 90.8 °F 53.6 °F 26% 29.80 in - West 5.8 mph - N/A   Clear
1:55 PM 91.4 °F 89.1 °F 53.6 °F 28% 29.79 in - South 8.1 mph - N/A   Clear
2:15 PM 93.2 °F 90.8 °F 53.6 °F 26% 29.79 in - South 5.8 mph - N/A   Clear
2:35 PM 93.2 °F - 51.8 °F 24% 29.78 in - SW 8.1 mph - N/A   Clear
2:55 PM 95.0 °F - 50.0 °F 22% 29.77 in - SW 11.5 mph 18.4 mph N/A   Clear
3:15 PM 95.0 °F - 50.0 °F 22% 29.77 in - West 11.5 mph 16.1 mph N/A   Clear
3:35 PM 93.2 °F - 48.2 °F 21% 29.76 in - WSW 11.5 mph 17.3 mph N/A   Clear
3:55 PM 93.2 °F - 48.2 °F 21% 29.76 in - WSW 13.8 mph - N/A   Clear
4:15 PM 93.2 °F - 46.4 °F 20% 29.76 in - WSW 13.8 mph - N/A   Clear
4:35 PM 93.2 °F - 46.4 °F 20% 29.75 in - WSW 12.7 mph - N/A   Clear
4:55 PM 93.2 °F - 48.2 °F 21% 29.76 in - WSW 8.1 mph - N/A   Clear
5:15 PM 93.2 °F - 48.2 °F 21% 29.75 in - West 9.2 mph - N/A   Clear
5:35 PM 91.4 °F - 46.4 °F 21% 29.75 in - NNW 8.1 mph - N/A   Clear
5:55 PM 91.4 °F - 48.2 °F 23% 29.75 in - West 3.5 mph - N/A   Clear
6:15 PM 89.6 °F - 50.0 °F 26% 29.74 in - WSW 3.5 mph - N/A   Clear
6:35 PM 86.0 °F - 48.2 °F 27% 29.74 in - SSE 3.5 mph - N/A   Clear
7:15 PM 77.0 °F - 55.4 °F 47% 29.75 in - NNE 6.9 mph - N/A   Clear
7:35 PM 73.4 °F - 55.4 °F 53% 29.75 in 10.0 mi NNE 9.2 mph - N/A   Clear
7:55 PM 71.6 °F - 55.4 °F 57% 29.75 in 10.0 mi North 9.2 mph - N/A   Clear
8:15 PM 68.0 °F - 55.4 °F 64% 29.76 in 10.0 mi NNW 8.1 mph - N/A   Clear
8:35 PM 68.0 °F - 55.4 °F 64% 29.76 in 10.0 mi NNE 6.9 mph - N/A   Clear
8:55 PM 64.4 °F - 55.4 °F 73% 29.77 in 10.0 mi NNE 6.9 mph - N/A   Clear
9:15 PM 64.4 °F - 55.4 °F 73% 29.78 in 10.0 mi North 8.1 mph - N/A   Clear
9:35 PM 62.6 °F - 55.4 °F 77% 29.78 in 10.0 mi North 4.6 mph - N/A   Clear
9:55 PM 60.8 °F - 55.4 °F 82% 29.78 in 10.0 mi North 8.1 mph - N/A   Clear
10:15 PM 59.0 °F - 55.4 °F 88% 29.78 in 10.0 mi North 5.8 mph - N/A   Clear
10:35 PM 59.0 °F - 53.6 °F 82% 29.78 in 10.0 mi NNW 5.8 mph - N/A   Clear
10:55 PM 57.2 °F - 53.6 °F 88% 29.78 in 10.0 mi North 4.6 mph - N/A   Clear
11:15 PM 57.2 °F - 53.6 °F 88% 29.78 in 10.0 mi NNW 4.6 mph - N/A   Clear
11:35 PM 57.2 °F - 53.6 °F 88% 29.78 in 10.0 mi North 4.6 mph - N/A   Clear
11:55 PM 57.2 °F - 51.8 °F 82% 29.78 in 10.0 mi North 3.5 mph - N/A   Clear